Time;durP1;ratioP1;P1;durP2;ratioP2;P2;SDS_P1;SDS_P2;PMS_P1;PMS_P2;Temp;Humidity;BMP_temperature;BMP_pressure;BME280_temperature;BME280_humidity;BME280_pressure;Samples;Min_cycle;Max_cycle;Signal;HPM_P1;HPM_P2
2022/12/18 00:01:31;;;;;;;42.77;22.37;;;;;;;-9.11;100.00;101462.28;5026765;28;20478;-67
2022/12/18 00:03:58;;;;;;;49.23;22.90;;;;;;;-9.06;100.00;101461.66;5028780;28;20840;-67
2022/12/18 00:06:26;;;;;;;53.73;26.87;;;;;;;-9.14;100.00;101466.25;5029432;28;20753;-67
2022/12/18 00:08:51;;;;;;;46.40;22.70;;;;;;;-9.26;100.00;101452.44;5026938;28;20772;-66
2022/12/18 00:11:19;;;;;;;50.93;22.63;;;;;;;-9.31;100.00;101458.84;5034033;28;20627;-68
2022/12/18 00:13:45;;;;;;;44.17;23.03;;;;;;;-9.52;100.00;101457.81;5024866;28;20244;-67
2022/12/18 00:16:13;;;;;;;42.37;21.20;;;;;;;-9.42;100.00;101457.47;5029561;28;20409;-69
2022/12/18 00:18:38;;;;;;;49.10;24.20;;;;;;;-9.45;100.00;101457.31;5032599;28;20205;-67
2022/12/18 00:21:06;;;;;;;51.37;23.40;;;;;;;-9.42;100.00;101465.78;5023451;28;20408;-66
2022/12/18 00:23:34;;;;;;;47.97;23.20;;;;;;;-9.33;100.00;101462.03;5028992;28;20555;-67
2022/12/18 00:26:01;;;;;;;50.13;22.83;;;;;;;-9.40;100.00;101453.44;5031735;28;20585;-66
2022/12/18 00:28:27;;;;;;;49.57;23.27;;;;;;;-9.42;100.00;101458.31;5034271;28;20492;-66
2022/12/18 00:31:03;;;;;;;43.30;22.23;;;;;;;-9.33;100.00;101455.41;5022664;28;20418;-64
2022/12/18 00:33:29;;;;;;;42.60;22.07;;;;;;;-9.33;100.00;101459.56;5030864;28;20181;-66
2022/12/18 00:35:54;;;;;;;44.07;21.03;;;;;;;-9.37;100.00;101465.19;5033734;28;20566;-66
2022/12/18 00:38:20;;;;;;;47.97;23.37;;;;;;;-9.30;100.00;101473.03;5034389;28;20269;-66
2022/12/18 00:40:45;;;;;;;45.83;23.07;;;;;;;-9.41;100.00;101464.16;5034079;28;20637;-66
2022/12/18 00:43:10;;;;;;;43.57;21.53;;;;;;;-9.49;100.00;101461.28;5034084;28;20208;-67
2022/12/18 00:45:35;;;;;;;42.60;22.87;;;;;;;-9.41;100.00;101464.16;5034038;28;20540;-67
2022/12/18 00:48:01;;;;;;;45.67;21.97;;;;;;;-9.43;100.00;101464.06;5033824;28;20633;-67
2022/12/18 00:50:26;;;;;;;41.60;21.33;;;;;;;-9.38;100.00;101464.31;5029106;28;20494;-67
2022/12/18 00:52:51;;;;;;;44.57;21.87;;;;;;;-9.41;100.00;101462.53;5019822;28;20277;-67
2022/12/18 00:55:18;;;;;;;39.30;21.73;;;;;;;-9.36;100.00;101459.38;5020075;28;20586;-66
2022/12/18 00:57:43;;;;;;;46.67;22.00;;;;;;;-9.44;100.00;101464.00;5032554;28;20218;-67
2022/12/18 01:00:13;;;;;;;46.77;23.37;;;;;;;-9.39;100.00;101467.56;5033876;28;20613;-66
2022/12/18 01:02:39;;;;;;;44.63;22.13;;;;;;;-9.33;100.00;101465.38;5035325;28;20237;-67
2022/12/18 01:05:04;;;;;;;43.20;22.60;;;;;;;-9.46;100.00;101468.91;5033709;28;20776;-66
2022/12/18 01:07:30;;;;;;;41.70;21.20;;;;;;;-9.54;100.00;101464.34;5036218;28;20183;-66
2022/12/18 01:09:55;;;;;;;44.30;23.20;;;;;;;-9.49;100.00;101468.75;5031299;28;20232;-66
2022/12/18 01:12:20;;;;;;;41.23;20.93;;;;;;;-9.45;100.00;101472.25;5032342;28;20721;-67
2022/12/18 01:14:46;;;;;;;43.30;21.43;;;;;;;-9.46;100.00;101473.06;5032258;28;20182;-67
2022/12/18 01:17:11;;;;;;;44.17;21.83;;;;;;;-9.49;100.00;101472.91;5020639;28;20198;-66
2022/12/18 01:19:36;;;;;;;42.87;21.33;;;;;;;-9.43;100.00;101469.06;5032472;28;20186;-66
2022/12/18 01:22:01;;;;;;;41.70;21.23;;;;;;;-9.36;100.00;101471.84;5033413;28;20206;-66
2022/12/18 01:24:27;;;;;;;42.27;21.20;;;;;;;-9.29;100.00;101471.38;5032009;28;20273;-65
2022/12/18 01:26:52;;;;;;;42.90;21.93;;;;;;;-9.29;100.00;101476.34;5031016;28;20388;-66
2022/12/18 01:29:18;;;;;;;48.30;23.17;;;;;;;-9.34;100.00;101477.78;5024001;28;20621;-66
2022/12/18 01:31:43;;;;;;;44.17;22.63;;;;;;;-9.42;100.00;101478.25;5040979;28;20656;-66
2022/12/18 01:34:09;;;;;;;45.33;21.47;;;;;;;-9.48;100.00;101487.91;5033234;28;20660;-66
2022/12/18 01:36:38;;;;;;;49.00;22.23;;;;;;;-9.46;100.00;101502.97;5032068;28;20189;-67
2022/12/18 01:39:11;;;;;;;46.77;21.87;;;;;;;-9.48;100.00;101500.38;5047650;28;20269;-67
2022/12/18 01:44:46;;;;;;;45.77;22.37;;;;;;;-9.57;100.00;101504.91;5033202;28;20416;-67
2022/12/18 01:47:24;;;;;;;39.27;20.13;;;;;;;-9.61;100.00;101498.91;5031958;28;20424;-67
2022/12/18 01:49:50;;;;;;;45.17;20.87;;;;;;;-9.58;100.00;101496.56;5029897;28;20421;-67
2022/12/18 01:52:17;;;;;;;42.50;22.20;;;;;;;-9.69;100.00;101482.72;5026060;28;21629;-68
2022/12/18 01:54:46;;;;;;;46.97;23.50;;;;;;;-10.01;100.00;101484.41;5032067;28;20210;-67
2022/12/18 01:57:12;;;;;;;42.23;22.90;;;;;;;-9.97;100.00;101476.34;5031618;28;20449;-68
2022/12/18 01:59:40;;;;;;;45.63;23.93;;;;;;;-9.88;100.00;101473.47;5031095;28;20467;-68
2022/12/18 02:02:07;;;;;;;44.30;21.63;;;;;;;-9.85;100.00;101483.56;5027110;28;20286;-66
2022/12/18 02:04:32;;;;;;;50.67;22.40;;;;;;;-9.78;100.00;101485.59;5021042;28;20417;-68
2022/12/18 02:09:59;;;;;;;43.40;22.60;;;;;;;-9.79;100.00;101478.06;5094236;27;20577;-67
2022/12/18 02:12:33;;;;;;;39.37;20.87;;;;;;;-9.80;100.00;101482.16;5012301;28;20566;-67
2022/12/18 02:15:08;;;;;;;45.03;21.33;;;;;;;-9.84;100.00;101486.94;5039553;28;20478;-67
2022/12/18 02:17:46;;;;;;;48.37;22.93;;;;;;;-9.87;100.00;101475.19;5052926;28;20418;-62
2022/12/18 02:20:29;;;;;;;43.07;21.43;;;;;;;-9.95;100.00;101468.97;5034538;28;20429;-60
2022/12/18 02:23:08;;;;;;;43.37;21.80;;;;;;;-9.88;100.00;101468.50;5045052;28;20878;-61
2022/12/18 02:25:47;;;;;;;50.80;22.97;;;;;;;-9.92;100.00;101474.94;5061160;28;20427;-62
2022/12/18 02:28:15;;;;;;;37.70;19.80;;;;;;;-10.10;100.00;101464.88;4973500;28;20573;-60
2022/12/18 02:30:43;;;;;;;46.57;23.10;;;;;;;-10.09;100.00;101454.16;5020262;28;20471;-62
2022/12/18 02:33:11;;;;;;;42.37;21.67;;;;;;;-10.19;100.00;101452.00;5032856;28;20487;-60
2022/12/18 02:35:40;;;;;;;43.40;20.67;;;;;;;-10.19;100.00;101451.13;5039126;28;20456;-60
2022/12/18 02:38:06;;;;;;;39.23;21.77;;;;;;;-10.16;100.00;101451.28;5047350;28;20416;-60
2022/12/18 02:40:31;;;;;;;38.57;20.50;;;;;;;-10.02;100.00;101449.50;5032932;28;21036;-60
2022/12/18 02:43:12;;;;;;;42.10;20.73;;;;;;;-10.13;100.00;101444.84;5032513;28;20208;-59
2022/12/18 02:45:54;;;;;;;37.07;20.00;;;;;;;-10.12;100.00;101448.16;5047258;28;20181;-60
2022/12/18 02:48:25;;;;;;;41.97;21.30;;;;;;;-10.12;100.00;101455.63;5040074;28;20488;-60
2022/12/18 02:51:03;;;;;;;40.87;19.47;;;;;;;-10.18;100.00;101458.69;5035774;28;20475;-59
2022/12/18 02:53:53;;;;;;;46.53;22.60;;;;;;;-10.22;100.00;101462.63;5039995;28;20515;-60
2022/12/18 02:56:31;;;;;;;48.23;22.03;;;;;;;-10.19;100.00;101459.44;5038213;28;20424;-60
2022/12/18 02:59:02;;;;;;;41.20;20.53;;;;;;;-10.20;100.00;101459.38;5023450;28;20446;-60
2022/12/18 03:01:39;;;;;;;39.83;19.63;;;;;;;-10.18;100.00;101462.78;5031595;28;20473;-60
2022/12/18 03:04:16;;;;;;;44.27;21.90;;;;;;;-10.27;100.00;101459.06;5024986;28;20434;-61
2022/12/18 03:06:53;;;;;;;45.93;20.73;;;;;;;-10.23;100.00;101460.09;5050040;28;20509;-62
2022/12/18 03:09:30;;;;;;;38.63;20.30;;;;;;;-10.28;100.00;101466.44;5012732;28;20491;-61
2022/12/18 03:14:54;;;;;;;42.60;20.17;;;;;;;-10.28;100.00;101468.91;5027639;28;20493;-60
2022/12/18 03:17:22;;;;;;;39.93;20.03;;;;;;;-10.43;100.00;101459.91;5027169;28;20504;-61
2022/12/18 03:19:50;;;;;;;43.97;20.13;;;;;;;-10.56;100.00;101468.34;5020722;28;20414;-61
2022/12/18 03:22:18;;;;;;;42.50;20.57;;;;;;;-10.45;100.00;101460.63;5004362;28;20476;-60
2022/12/18 03:24:46;;;;;;;39.03;20.67;;;;;;;-10.40;100.00;101451.75;5009635;28;20426;-61
2022/12/18 03:27:15;;;;;;;43.37;19.43;;;;;;;-10.36;100.00;101452.78;5008384;28;20433;-60
2022/12/18 03:30:07;;;;;;;39.70;19.37;;;;;;;-10.43;100.00;101464.03;5012678;28;20453;-61
2022/12/18 03:32:38;;;;;;;37.37;19.63;;;;;;;-10.42;100.00;101459.16;5002734;28;20466;-61
2022/12/18 03:35:05;;;;;;;42.37;20.80;;;;;;;-10.44;100.00;101458.19;5012797;28;20419;-61
2022/12/18 03:37:31;;;;;;;39.20;20.50;;;;;;;-10.55;100.00;101446.84;5011822;28;20417;-61
2022/12/18 03:39:57;;;;;;;38.80;18.77;;;;;;;-10.54;100.00;101446.06;5012566;28;20452;-60
2022/12/18 03:42:37;;;;;;;37.10;19.13;;;;;;;-10.53;100.00;101456.84;5019122;28;20468;-60
2022/12/18 03:45:12;;;;;;;37.20;18.97;;;;;;;-10.47;100.00;101457.19;5012367;28;20194;-61
2022/12/18 03:47:43;;;;;;;45.23;19.93;;;;;;;-10.45;100.00;101453.16;5004145;28;20417;-60
2022/12/18 03:50:16;;;;;;;38.37;19.17;;;;;;;-10.44;100.00;101447.38;5004630;28;20497;-62
2022/12/18 03:53:09;;;;;;;31.83;17.73;;;;;;;-10.53;100.00;101431.97;5027161;28;20522;-60
2022/12/18 03:55:35;;;;;;;35.83;18.20;;;;;;;-10.45;100.00;101430.75;5000179;28;20505;-60
2022/12/18 03:58:03;;;;;;;35.97;19.40;;;;;;;-10.36;100.00;101446.16;5009618;28;21017;-59
2022/12/18 04:00:31;;;;;;;42.13;19.67;;;;;;;-10.41;100.00;101448.41;4997198;28;20468;-61
2022/12/18 04:02:59;;;;;;;32.23;18.63;;;;;;;-10.55;100.00;101445.19;5026756;28;20503;-60
2022/12/18 04:05:27;;;;;;;37.33;19.67;;;;;;;-10.47;100.00;101437.28;5017542;28;20429;-59
2022/12/18 04:07:54;;;;;;;36.10;19.60;;;;;;;-10.42;100.00;101446.72;5015405;28;20487;-59
2022/12/18 04:10:20;;;;;;;34.70;18.57;;;;;;;-10.40;100.00;101450.13;5001445;28;20422;-60
2022/12/18 04:12:45;;;;;;;34.50;19.37;;;;;;;-10.42;100.00;101441.72;5022629;28;20403;-60
2022/12/18 04:15:12;;;;;;;32.23;18.30;;;;;;;-10.50;100.00;101435.50;5004625;28;20178;-60
2022/12/18 04:17:42;;;;;;;36.53;19.37;;;;;;;-10.46;100.00;101431.53;5027437;28;20204;-59
2022/12/18 04:20:08;;;;;;;35.00;18.13;;;;;;;-10.46;100.00;101436.50;4999625;28;20477;-60
2022/12/18 04:22:33;;;;;;;37.23;20.03;;;;;;;-10.40;100.00;101446.78;5009102;28;20434;-60
2022/12/18 04:24:58;;;;;;;36.27;19.83;;;;;;;-10.40;100.00;101449.28;5012997;28;20263;-60
2022/12/18 04:27:23;;;;;;;39.67;19.50;;;;;;;-10.52;100.00;101443.66;5012540;28;20191;-60
2022/12/18 04:29:49;;;;;;;33.20;17.57;;;;;;;-10.68;100.00;101447.78;5013007;28;20217;-60
2022/12/18 04:32:14;;;;;;;40.10;20.47;;;;;;;-10.84;100.00;101446.09;4996783;28;20756;-60
2022/12/18 04:34:39;;;;;;;37.50;20.07;;;;;;;-10.82;100.00;101427.16;5013169;28;20183;-60
2022/12/18 04:37:04;;;;;;;34.03;19.13;;;;;;;-10.74;100.00;101428.44;5012412;28;20171;-60
2022/12/18 04:39:33;;;;;;;37.33;20.67;;;;;;;-10.63;100.00;101423.19;5012696;28;20175;-60
2022/12/18 04:41:58;;;;;;;31.13;19.63;;;;;;;-10.61;100.00;101424.97;5000790;28;20290;-60
2022/12/18 04:44:23;;;;;;;33.63;18.50;;;;;;;-10.48;100.00;101428.09;5012718;28;20928;-59
2022/12/18 04:46:49;;;;;;;37.53;19.30;;;;;;;-10.41;100.00;101440.94;5011996;28;20676;-59
2022/12/18 04:49:14;;;;;;;31.43;17.73;;;;;;;-10.57;100.00;101435.94;5012708;28;20211;-59
2022/12/18 04:51:39;;;;;;;38.87;18.80;;;;;;;-10.49;100.00;101439.69;5003329;28;20230;-60
2022/12/18 04:54:05;;;;;;;35.97;17.97;;;;;;;-10.48;100.00;101441.41;5015806;28;20228;-60
2022/12/18 04:56:31;;;;;;;31.67;17.53;;;;;;;-10.47;100.00;101442.25;5011565;28;20206;-59
2022/12/18 04:58:56;;;;;;;35.63;18.37;;;;;;;-10.43;100.00;101447.47;4980401;28;20223;-62
2022/12/18 05:01:21;;;;;;;32.57;17.53;;;;;;;-10.42;100.00;101448.31;5004858;28;20488;-61
2022/12/18 05:03:47;;;;;;;33.17;18.43;;;;;;;-10.45;100.00;101444.03;5016908;28;20179;-62
2022/12/18 05:06:12;;;;;;;37.57;19.47;;;;;;;-10.53;100.00;101440.28;5012864;28;20319;-62
2022/12/18 05:08:38;;;;;;;31.10;16.17;;;;;;;-10.47;100.00;101447.22;5008667;28;20292;-61
2022/12/18 05:11:09;;;;;;;34.10;18.10;;;;;;;-10.44;100.00;101454.84;5009936;28;20234;-61
2022/12/18 05:13:35;;;;;;;34.70;17.97;;;;;;;-10.29;100.00;101452.28;5010776;28;20186;-62
2022/12/18 05:16:02;;;;;;;34.77;17.43;;;;;;;-10.30;100.00;101458.88;5026587;28;20441;-62
2022/12/18 05:18:27;;;;;;;35.13;17.50;;;;;;;-10.39;100.00;101455.97;5011022;28;20429;-61
2022/12/18 05:20:54;;;;;;;35.90;19.00;;;;;;;-10.57;100.00;101453.34;5008707;28;20844;-59
2022/12/18 05:23:21;;;;;;;33.07;17.93;;;;;;;-10.66;100.00;101446.25;5009693;28;20185;-59
2022/12/18 05:25:51;;;;;;;36.93;19.23;;;;;;;-10.56;100.00;101457.56;5027218;28;20425;-59
2022/12/18 05:28:16;;;;;;;29.43;18.27;;;;;;;-10.44;100.00;101452.34;5011787;28;20464;-61
2022/12/18 05:30:47;;;;;;;29.10;17.23;;;;;;;-10.41;100.00;101442.56;5006935;28;20850;-60
2022/12/18 05:33:13;;;;;;;32.53;18.13;;;;;;;-10.39;100.00;101441.03;5007453;28;20175;-60
2022/12/18 05:35:38;;;;;;;39.53;18.07;;;;;;;-10.44;100.00;101438.31;5007725;28;20952;-60
2022/12/18 05:38:03;;;;;;;37.30;18.90;;;;;;;-10.39;100.00;101441.88;5011347;28;20175;-60
2022/12/18 05:40:28;;;;;;;29.40;16.80;;;;;;;-10.38;100.00;101433.66;5004056;28;20233;-60
2022/12/18 05:42:54;;;;;;;32.27;17.33;;;;;;;-10.41;100.00;101435.97;5014267;28;20608;-60
2022/12/18 05:45:20;;;;;;;35.20;17.37;;;;;;;-10.31;100.00;101443.88;5011782;28;20175;-61
2022/12/18 05:47:45;;;;;;;36.57;18.40;;;;;;;-10.33;100.00;101431.38;5010975;28;20245;-60
2022/12/18 05:50:10;;;;;;;30.37;17.03;;;;;;;-10.31;100.00;101432.28;5002479;28;20202;-60
2022/12/18 05:52:36;;;;;;;29.17;17.87;;;;;;;-10.43;100.00;101432.56;5006220;28;20240;-60
2022/12/18 05:55:01;;;;;;;37.93;17.80;;;;;;;-10.40;100.00;101434.34;5006567;28;20285;-60
2022/12/18 05:57:26;;;;;;;33.00;18.53;;;;;;;-10.41;100.00;101440.09;5009334;28;20199;-61
2022/12/18 05:59:52;;;;;;;29.67;17.33;;;;;;;-10.41;100.00;101437.59;5010232;28;20183;-60
2022/12/18 06:02:17;;;;;;;32.07;18.77;;;;;;;-10.46;100.00;101429.88;5016353;28;20253;-59
2022/12/18 06:04:42;;;;;;;32.60;18.53;;;;;;;-10.46;100.00;101437.34;5011534;28;20672;-59
2022/12/18 06:07:07;;;;;;;30.83;17.47;;;;;;;-10.39;100.00;101443.53;5011113;28;20187;-60
2022/12/18 06:09:33;;;;;;;33.43;17.37;;;;;;;-10.42;100.00;101451.69;5011145;28;22105;-59
2022/12/18 06:11:58;;;;;;;29.90;17.70;;;;;;;-10.40;100.00;101457.56;5003194;28;20226;-60
2022/12/18 06:14:27;;;;;;;30.80;18.00;;;;;;;-10.37;100.00;101451.91;5011870;28;20237;-60
2022/12/18 06:16:52;;;;;;;33.00;18.37;;;;;;;-10.36;100.00;101455.25;5011258;28;20267;-60
2022/12/18 06:19:17;;;;;;;34.27;18.70;;;;;;;-10.34;100.00;101456.16;5011081;28;20918;-60
2022/12/18 06:21:43;;;;;;;32.93;19.50;;;;;;;-10.28;100.00;101461.44;5014352;28;20222;-60
2022/12/18 06:24:08;;;;;;;33.03;18.07;;;;;;;-10.29;100.00;101458.13;5010135;28;20202;-60
2022/12/18 06:26:33;;;;;;;32.70;17.90;;;;;;;-10.26;100.00;101462.38;5011065;28;20183;-60
2022/12/18 06:28:59;;;;;;;33.67;18.97;;;;;;;-10.17;100.00;101467.00;5008931;28;20593;-60
2022/12/18 06:31:25;;;;;;;30.20;18.73;;;;;;;-10.15;100.00;101468.78;5011871;28;20300;-61
2022/12/18 06:33:50;;;;;;;31.60;18.07;;;;;;;-10.18;100.00;101478.59;5010009;28;20218;-61
2022/12/18 06:36:16;;;;;;;33.97;19.47;;;;;;;-10.25;100.00;101472.41;5011854;28;20429;-59
2022/12/18 06:38:43;;;;;;;30.07;18.67;;;;;;;-10.14;100.00;101479.59;5014831;28;20296;-60
2022/12/18 06:41:10;;;;;;;39.13;20.40;;;;;;;-10.22;100.00;101491.63;4994251;28;20234;-61
2022/12/18 06:43:35;;;;;;;29.57;18.40;;;;;;;-10.15;100.00;101496.16;5010817;28;20425;-61
2022/12/18 06:46:02;;;;;;;31.53;18.27;;;;;;;-10.00;100.00;101496.09;5011417;28;20414;-61
2022/12/18 06:48:27;;;;;;;36.03;19.83;;;;;;;-10.07;100.00;101486.59;5009665;28;20207;-60
2022/12/18 06:50:52;;;;;;;35.13;19.13;;;;;;;-10.01;100.00;101486.06;5008033;28;21053;-60
2022/12/18 06:53:17;;;;;;;36.17;19.03;;;;;;;-10.01;100.00;101496.03;5012208;28;20254;-60
2022/12/18 06:55:43;;;;;;;35.47;18.60;;;;;;;-10.01;100.00;101491.88;5013305;28;20217;-61
2022/12/18 06:58:08;;;;;;;29.97;17.90;;;;;;;-9.96;100.00;101494.63;5012154;28;20206;-60
2022/12/18 07:00:33;;;;;;;32.17;19.93;;;;;;;-9.94;100.00;101503.03;5008862;28;20332;-61
2022/12/18 07:02:59;;;;;;;34.73;18.77;;;;;;;-9.88;100.00;101503.34;5025893;28;20187;-60
2022/12/18 07:05:24;;;;;;;34.20;19.60;;;;;;;-9.86;100.00;101504.28;5014738;28;20605;-61
2022/12/18 07:07:49;;;;;;;29.10;18.53;;;;;;;-9.74;100.00;101507.38;5013894;28;20231;-60
2022/12/18 07:10:15;;;;;;;35.63;19.57;;;;;;;-9.76;100.00;101508.97;5004039;28;20190;-60
2022/12/18 07:12:40;;;;;;;31.20;19.53;;;;;;;-9.73;100.00;101505.75;5013439;28;20191;-61
2022/12/18 07:15:07;;;;;;;32.60;18.63;;;;;;;-9.64;100.00;101500.41;5014209;28;20175;-60
2022/12/18 07:17:32;;;;;;;32.27;18.40;;;;;;;-9.63;100.00;101505.44;5012862;28;20380;-60
2022/12/18 07:19:58;;;;;;;38.67;19.77;;;;;;;-9.52;100.00;101501.00;5014120;28;20422;-62
2022/12/18 07:22:25;;;;;;;35.10;21.10;;;;;;;-9.50;100.00;101496.09;5018987;28;20260;-60
2022/12/18 07:24:51;;;;;;;30.00;17.97;;;;;;;-9.44;100.00;101496.41;5012072;28;20681;-61
2022/12/18 07:27:16;;;;;;;33.70;19.17;;;;;;;-9.40;100.00;101490.81;5011757;28;20422;-61
2022/12/18 07:29:41;;;;;;;41.87;20.73;;;;;;;-9.28;100.00;101488.03;5013756;28;20269;-60
2022/12/18 07:32:07;;;;;;;35.63;19.27;;;;;;;-9.20;100.00;101491.78;5005379;28;20782;-61
2022/12/18 07:34:32;;;;;;;44.23;20.20;;;;;;;-9.06;100.00;101492.44;5014048;28;20668;-61
2022/12/18 07:36:58;;;;;;;34.77;18.70;;;;;;;-8.95;100.00;101492.94;5011763;28;20178;-62
2022/12/18 07:39:23;;;;;;;35.67;19.90;;;;;;;-8.93;100.00;101494.72;5013390;28;20203;-61
2022/12/18 07:42:30;;;;;;;41.97;20.37;;;;;;;-8.80;100.00;101492.81;4998110;28;20272;-61
2022/12/18 07:44:33;;;;;;;42.27;19.13;;;;;;;-8.71;100.00;101502.38;5011970;28;20193;-59
2022/12/18 07:46:59;;;;;;;35.17;19.97;;;;;;;-8.63;100.00;101506.94;5012930;28;20417;-60
2022/12/18 07:49:24;;;;;;;47.47;22.63;;;;;;;-8.61;100.00;101517.84;5013227;28;20207;-61
2022/12/18 07:51:49;;;;;;;38.10;20.37;;;;;;;-8.63;100.00;101519.41;5001667;28;20301;-63
2022/12/18 07:54:15;;;;;;;44.60;22.60;;;;;;;-8.54;100.00;101531.44;5012957;28;20210;-61
2022/12/18 07:56:40;;;;;;;39.00;19.83;;;;;;;-8.51;100.00;101546.53;5008992;28;20202;-61
2022/12/18 07:59:06;;;;;;;44.13;21.10;;;;;;;-8.43;100.00;101530.25;5028513;28;20223;-61
2022/12/18 08:01:31;;;;;;;42.23;20.57;;;;;;;-8.46;100.00;101531.78;5004157;28;20689;-61
2022/12/18 08:03:57;;;;;;;39.20;21.30;;;;;;;-8.66;100.00;101535.88;5011723;28;20211;-61
2022/12/18 08:06:23;;;;;;;40.17;22.63;;;;;;;-8.57;100.00;101537.94;5012505;28;20198;-61
2022/12/18 08:08:48;;;;;;;34.00;21.03;;;;;;;-8.36;100.00;101528.94;5011121;28;20478;-61
2022/12/18 08:11:14;;;;;;;44.80;24.03;;;;;;;-8.31;100.00;101529.13;5012030;28;20276;-60
2022/12/18 08:13:39;;;;;;;43.97;24.07;;;;;;;-8.29;100.00;101533.38;5014997;28;20797;-61
2022/12/18 08:16:06;;;;;;;47.47;25.03;;;;;;;-8.10;100.00;101531.72;5008908;28;20602;-61
2022/12/18 08:18:34;;;;;;;55.87;29.27;;;;;;;-7.97;100.00;101528.16;5010725;28;20186;-60
2022/12/18 08:21:14;;;;;;;45.47;24.87;;;;;;;-8.03;100.00;101527.88;5009573;28;20835;-67
2022/12/18 08:23:40;;;;;;;48.70;25.93;;;;;;;-7.88;100.00;101523.53;5018906;28;20430;-62
2022/12/18 08:26:06;;;;;;;48.67;25.77;;;;;;;-7.65;100.00;101526.19;5012181;28;20422;-61
2022/12/18 08:28:31;;;;;;;44.23;24.87;;;;;;;-7.60;100.00;101524.75;5012569;28;20308;-61
2022/12/18 08:30:57;;;;;;;40.27;26.27;;;;;;;-7.63;100.00;101527.09;4987120;28;20284;-62
2022/12/18 08:33:22;;;;;;;44.47;26.00;;;;;;;-7.82;100.00;101516.31;5008349;28;20288;-60
2022/12/18 08:35:47;;;;;;;41.90;23.73;;;;;;;-7.73;100.00;101505.84;5007340;28;20242;-61
2022/12/18 08:38:13;;;;;;;41.00;25.00;;;;;;;-7.57;100.00;101509.03;5011006;28;20251;-61
2022/12/18 08:40:38;;;;;;;43.17;24.30;;;;;;;-7.70;100.00;101503.50;5007309;28;20230;-60
2022/12/18 08:45:47;;;;;;;37.33;22.93;;;;;;;-7.44;100.00;101500.38;5005959;28;20261;-61
2022/12/18 08:48:12;;;;;;;41.57;24.07;;;;;;;-7.36;100.00;101494.91;5012352;28;20548;-61
2022/12/18 08:50:38;;;;;;;40.17;25.60;;;;;;;-7.29;100.00;101498.53;5001018;28;20227;-61
2022/12/18 08:53:03;;;;;;;41.20;24.13;;;;;;;-7.06;100.00;101496.94;5004079;28;20531;-62
2022/12/18 08:55:29;;;;;;;40.80;26.47;;;;;;;-6.78;100.00;101482.16;5011281;28;20209;-61
2022/12/18 08:57:54;;;;;;;44.83;24.97;;;;;;;-5.99;100.00;101485.94;5012245;28;20311;-63
2022/12/18 09:00:19;;;;;;;45.33;26.17;;;;;;;-5.70;100.00;101481.06;5004830;28;20178;-61
2022/12/18 09:02:45;;;;;;;76.47;35.43;;;;;;;-5.02;100.00;101486.63;5025540;28;20186;-61
2022/12/18 09:05:10;;;;;;;47.97;25.80;;;;;;;-4.46;100.00;101480.78;5012443;28;20182;-60
2022/12/18 09:07:36;;;;;;;34.97;22.73;;;;;;;-3.72;100.00;101487.03;5011677;28;20237;-63
2022/12/18 09:10:01;;;;;;;35.73;22.50;;;;;;;-3.45;100.00;101489.44;5027762;28;20213;-61
2022/12/18 09:12:27;;;;;;;38.67;23.53;;;;;;;-2.99;100.00;101493.88;4984762;28;20584;-62
2022/12/18 09:14:52;;;;;;;36.77;22.80;;;;;;;-2.21;100.00;101499.78;5011082;28;20242;-62
2022/12/18 09:17:17;;;;;;;31.13;20.47;;;;;;;-2.10;100.00;101497.50;5009797;28;20178;-63
2022/12/18 09:19:43;;;;;;;34.10;20.97;;;;;;;-2.21;100.00;101507.34;5010750;28;20273;-61
2022/12/18 09:22:09;;;;;;;34.63;22.10;;;;;;;-2.33;100.00;101510.47;5003031;28;20272;-61
2022/12/18 09:24:34;;;;;;;37.37;21.33;;;;;;;-2.44;100.00;101506.88;5011035;28;20188;-61
2022/12/18 09:27:00;;;;;;;31.90;20.87;;;;;;;-2.70;100.00;101509.66;5011852;28;20186;-62
2022/12/18 09:29:25;;;;;;;39.80;21.47;;;;;;;-2.47;100.00;101512.72;5011961;28;20553;-62
2022/12/18 09:31:50;;;;;;;35.03;20.93;;;;;;;-2.33;100.00;101505.44;4991722;28;20243;-62
2022/12/18 09:34:16;;;;;;;31.67;21.33;;;;;;;-2.36;100.00;101510.41;5012920;28;20187;-62
2022/12/18 09:36:42;;;;;;;33.43;21.60;;;;;;;-2.27;100.00;101510.59;5011829;28;20262;-63
2022/12/18 09:39:10;;;;;;;31.47;20.50;;;;;;;-3.10;100.00;101509.56;5012366;28;20579;-62
2022/12/18 09:41:50;;;;;;;32.87;20.60;;;;;;;-3.62;100.00;101506.59;5012784;28;20685;-62
2022/12/18 09:44:21;;;;;;;34.87;20.97;;;;;;;-3.23;100.00;101512.59;5013960;28;20230;-63
2022/12/18 09:47:04;;;;;;;28.87;21.13;;;;;;;-3.34;100.00;101511.47;5008253;28;20190;-62
2022/12/18 09:49:34;;;;;;;29.63;20.33;;;;;;;-3.68;100.00;101516.50;5011841;28;20210;-61
2022/12/18 09:52:08;;;;;;;30.07;20.60;;;;;;;-4.11;100.00;101511.09;5002939;28;20232;-61
2022/12/18 09:54:41;;;;;;;33.97;20.67;;;;;;;-3.98;100.00;101504.78;5007050;28;20682;-62
2022/12/18 09:57:13;;;;;;;30.83;19.93;;;;;;;-4.07;100.00;101502.88;5011056;28;20201;-61
2022/12/18 09:59:42;;;;;;;34.70;22.20;;;;;;;-3.94;100.00;101499.03;5010554;28;20200;-60
2022/12/18 10:02:18;;;;;;;33.03;21.00;;;;;;;-4.24;100.00;101509.06;5019535;28;20236;-61
2022/12/18 10:04:45;;;;;;;33.07;19.73;;;;;;;-4.61;100.00;101511.34;5011467;28;20197;-61
2022/12/18 10:07:22;;;;;;;32.60;21.43;;;;;;;-4.97;100.00;101518.56;4990570;28;20190;-62
2022/12/18 10:10:03;;;;;;;38.07;21.93;;;;;;;-5.24;100.00;101519.38;5009409;28;20643;-62
2022/12/18 10:12:53;;;;;;;37.37;22.53;;;;;;;-5.40;100.00;101510.47;5000505;28;20299;-62
2022/12/18 10:15:30;;;;;;;40.33;22.83;;;;;;;-5.76;100.00;101498.41;4997395;28;20211;-61
2022/12/18 10:18:19;;;;;;;37.83;21.97;;;;;;;-6.09;100.00;101494.78;5009316;28;20414;-62
2022/12/18 10:20:59;;;;;;;39.57;22.83;;;;;;;-6.12;100.00;101486.31;5002273;28;20480;-61
2022/12/18 10:23:41;;;;;;;39.73;22.30;;;;;;;-6.30;100.00;101493.97;5007084;28;20419;-62
2022/12/18 10:26:09;;;;;;;40.77;21.77;;;;;;;-6.32;100.00;101488.94;5010577;28;20479;-61
2022/12/18 10:28:37;;;;;;;43.77;23.30;;;;;;;-6.17;100.00;101484.47;5009271;28;20445;-62
2022/12/18 10:31:25;;;;;;;40.60;23.37;;;;;;;-6.00;100.00;101487.59;4997964;28;20595;-61
2022/12/18 10:33:53;;;;;;;42.57;22.80;;;;;;;-5.98;100.00;101485.09;5014442;28;20803;-61
2022/12/18 10:36:18;;;;;;;37.87;23.03;;;;;;;-5.92;100.00;101490.31;5013617;28;20923;-61
2022/12/18 10:38:44;;;;;;;37.70;23.27;;;;;;;-5.83;100.00;101499.81;5015427;28;20535;-61
2022/12/18 10:41:25;;;;;;;41.10;23.63;;;;;;;-5.93;100.00;101498.63;5013962;28;20257;-61
2022/12/18 10:44:09;;;;;;;35.23;19.73;;;;;;;-6.11;100.00;101483.84;5010191;28;20197;-62
2022/12/18 10:46:35;;;;;;;37.37;22.43;;;;;;;-6.06;100.00;101484.84;5009506;28;20439;-63
2022/12/18 10:49:00;;;;;;;42.37;24.30;;;;;;;-5.95;100.00;101491.88;5013861;28;20445;-61
2022/12/18 10:51:28;;;;;;;48.50;25.87;;;;;;;-5.82;100.00;101491.50;5015525;28;20627;-62
2022/12/18 10:54:06;;;;;;;48.00;25.63;;;;;;;-5.64;100.00;101498.81;5006793;28;20642;-61
2022/12/18 10:56:37;;;;;;;39.67;25.07;;;;;;;-5.40;100.00;101486.25;5014516;28;20991;-61
2022/12/18 10:59:08;;;;;;;42.53;24.17;;;;;;;-5.16;100.00;101487.00;5015286;28;20409;-61
2022/12/18 11:01:50;;;;;;;38.83;23.00;;;;;;;-5.29;100.00;101494.13;5002366;28;20516;-61
2022/12/18 11:04:30;;;;;;;38.83;23.43;;;;;;;-5.50;100.00;101486.75;5011956;28;20426;-61
2022/12/18 11:06:59;;;;;;;35.53;22.57;;;;;;;-5.62;100.00;101488.84;5014611;28;20475;-62
2022/12/18 11:09:32;;;;;;;46.07;24.63;;;;;;;-5.52;100.00;101474.16;5014200;28;21031;-61
2022/12/18 11:12:01;;;;;;;37.07;24.37;;;;;;;-5.47;100.00;101474.31;5017946;28;20507;-62
2022/12/18 11:14:33;;;;;;;36.93;23.53;;;;;;;-5.44;100.00;101489.47;5015059;28;20414;-63
2022/12/18 11:17:00;;;;;;;36.33;23.90;;;;;;;-5.51;100.00;101485.91;5014643;28;20754;-61